Time;durP1;ratioP1;P1;durP2;ratioP2;P2;SDS_P1;SDS_P2;PMS_P1;PMS_P2;Temp;Humidity;BMP_temperature;BMP_pressure;BME280_temperature;BME280_humidity;BME280_pressure;Samples;Min_cycle;Max_cycle;Signal;HPM_P1;HPM_P2
2022/07/14 03:01:20;;;;;;;13.75;5.18;;;13.30;99.90;;;;;;6238394;22;20023;-82
2022/07/14 03:03:45;;;;;;;14.20;4.68;;;13.30;99.90;;;;;;6283002;22;20556;-83
2022/07/14 03:06:17;;;;;;;7.35;3.08;;;13.30;99.90;;;;;;6311416;22;20128;-84
2022/07/14 03:08:43;;;;;;;9.07;3.90;;;13.30;99.90;;;;;;6310804;22;20440;-83
2022/07/14 03:11:10;;;;;;;7.97;3.17;;;13.30;99.90;;;;;;6271337;22;20016;-84
2022/07/14 03:13:36;;;;;;;8.02;3.08;;;13.30;99.90;;;;;;6252562;22;20018;-84
2022/07/14 03:16:04;;;;;;;8.70;3.08;;;13.30;99.90;;;;;;6252815;22;20027;-83
2022/07/14 03:18:30;;;;;;;7.32;2.60;;;13.30;99.90;;;;;;6280477;22;20424;-84
2022/07/14 03:20:55;;;;;;;6.93;2.85;;;13.30;99.90;;;;;;6252243;22;20011;-84
2022/07/14 03:23:21;;;;;;;7.20;2.80;;;13.30;99.90;;;;;;6227095;22;20012;-84
2022/07/14 03:25:47;;;;;;;8.05;3.00;;;13.30;99.90;;;;;;6252786;22;20016;-84
2022/07/14 03:28:13;;;;;;;8.18;3.38;;;13.20;99.90;;;;;;6252860;22;20462;-83
2022/07/14 03:30:39;;;;;;;9.77;3.17;;;13.20;99.90;;;;;;6226939;22;20019;-84
2022/07/14 03:33:05;;;;;;;5.65;2.60;;;13.20;99.90;;;;;;6253055;22;20016;-83
2022/07/14 03:35:31;;;;;;;5.68;2.58;;;13.20;99.90;;;;;;6252733;22;20011;-84
2022/07/14 03:37:57;;;;;;;6.85;2.40;;;13.20;99.90;;;;;;6226772;22;20011;-83
2022/07/14 03:40:22;;;;;;;8.30;3.05;;;13.20;99.90;;;;;;6252442;22;20016;-83
2022/07/14 03:42:48;;;;;;;9.57;2.97;;;13.20;99.90;;;;;;6252737;22;20012;-83
2022/07/14 03:45:14;;;;;;;7.63;3.05;;;13.20;99.90;;;;;;6252254;22;20012;-84
2022/07/14 03:47:42;;;;;;;8.18;2.60;;;13.20;99.90;;;;;;6279559;22;20463;-84
2022/07/14 03:50:09;;;;;;;6.95;3.00;;;13.10;99.90;;;;;;6252828;22;20075;-83
2022/07/14 03:52:35;;;;;;;7.60;2.50;;;13.10;99.90;;;;;;6252235;22;20022;-83
2022/07/14 03:55:01;;;;;;;7.72;2.63;;;13.20;99.90;;;;;;6279843;22;20011;-84
2022/07/14 03:57:26;;;;;;;8.80;2.67;;;13.10;99.90;;;;;;6252641;22;20019;-83
2022/07/14 03:59:52;;;;;;;7.57;2.80;;;13.10;99.90;;;;;;6279166;22;20012;-84
2022/07/14 04:02:18;;;;;;;7.55;2.78;;;13.00;99.90;;;;;;6226811;22;20348;-84
2022/07/14 04:04:43;;;;;;;8.07;3.03;;;13.00;99.90;;;;;;6279450;22;20003;-83
2022/07/14 04:07:09;;;;;;;7.97;4.32;;;12.90;99.90;;;;;;6252241;22;20011;-84
2022/07/14 04:09:35;;;;;;;8.40;4.00;;;13.00;99.90;;;;;;6252627;22;20008;-83
2022/07/14 04:12:01;;;;;;;9.88;4.13;;;12.90;99.90;;;;;;6252142;22;20043;-84
2022/07/14 04:14:26;;;;;;;9.88;3.80;;;13.00;99.90;;;;;;6252355;22;20449;-84
2022/07/14 04:16:55;;;;;;;10.77;4.20;;;13.00;99.90;;;;;;6252628;22;20015;-85
2022/07/14 04:19:20;;;;;;;6.47;3.17;;;13.00;99.90;;;;;;6252961;22;20026;-84
2022/07/14 04:21:46;;;;;;;10.27;2.95;;;13.00;99.90;;;;;;6252682;22;20015;-84
2022/07/14 04:24:11;;;;;;;8.18;3.10;;;13.00;99.90;;;;;;6251651;22;20142;-83
2022/07/14 04:26:39;;;;;;;6.68;2.70;;;12.90;99.90;;;;;;6252320;22;20008;-84
2022/07/14 04:29:05;;;;;;;7.10;2.78;;;12.90;99.90;;;;;;6279196;22;20008;-84
2022/07/14 04:31:30;;;;;;;10.13;3.40;;;12.90;99.90;;;;;;6279150;22;20509;-83
2022/07/14 04:33:56;;;;;;;9.55;3.85;;;13.00;99.90;;;;;;6252366;22;20019;-83
2022/07/14 04:36:22;;;;;;;13.02;4.93;;;12.90;99.90;;;;;;6251942;22;20073;-84
2022/07/14 04:38:48;;;;;;;11.90;5.40;;;12.90;99.90;;;;;;6252038;22;20026;-84
2022/07/14 04:41:14;;;;;;;17.15;6.30;;;12.90;99.90;;;;;;6279389;22;20016;-83
2022/07/14 04:43:39;;;;;;;14.48;6.00;;;12.90;99.90;;;;;;6251833;22;20016;-83
2022/07/14 04:46:05;;;;;;;15.10;4.85;;;12.90;99.90;;;;;;6225814;22;20010;-84
2022/07/14 04:52:01;;;;;;;12.50;5.72;;;12.90;99.90;;;;;;6278906;22;20070;-83
2022/07/14 04:54:01;;;;;;;14.93;5.68;;;13.00;99.90;;;;;;6252672;22;20026;-84
2022/07/14 04:56:26;;;;;;;11.60;5.18;;;13.00;99.90;;;;;;6279571;22;20015;-83
2022/07/14 04:58:52;;;;;;;14.38;5.70;;;13.00;99.90;;;;;;6251859;22;20348;-83
2022/07/14 05:01:17;;;;;;;17.30;6.10;;;13.00;99.90;;;;;;6234929;22;20015;-80
2022/07/14 05:03:43;;;;;;;10.93;5.15;;;13.10;99.90;;;;;;6242587;22;20090;-79
2022/07/14 05:06:10;;;;;;;11.55;4.22;;;13.10;99.90;;;;;;6283294;22;20019;-83
2022/07/14 05:08:36;;;;;;;13.43;5.18;;;13.20;99.90;;;;;;6251772;22;20112;-84
2022/07/14 05:11:04;;;;;;;17.58;6.18;;;13.20;99.90;;;;;;6226939;22;20031;-83
2022/07/14 05:13:29;;;;;;;10.80;5.78;;;13.20;99.90;;;;;;6252013;22;20015;-83
2022/07/14 05:15:55;;;;;;;11.25;5.05;;;13.30;99.90;;;;;;6278768;22;20070;-85
2022/07/14 05:18:20;;;;;;;16.20;6.15;;;13.30;99.90;;;;;;6226204;22;20027;-84
2022/07/14 05:20:46;;;;;;;12.00;4.97;;;13.40;99.90;;;;;;6251613;22;20070;-84
2022/07/14 05:23:12;;;;;;;13.57;5.00;;;13.40;99.90;;;;;;6250708;22;20090;-84
2022/07/14 05:25:39;;;;;;;11.90;4.95;;;13.50;99.90;;;;;;6251393;22;20011;-83
2022/07/14 05:28:04;;;;;;;13.55;5.32;;;13.40;99.90;;;;;;6278542;22;20008;-83
2022/07/14 05:30:30;;;;;;;15.13;5.55;;;13.50;99.90;;;;;;6278238;22;20057;-82
2022/07/14 05:32:58;;;;;;;10.95;4.63;;;13.50;99.90;;;;;;6278314;22;20085;-84
2022/07/14 05:35:24;;;;;;;13.48;4.50;;;13.60;99.90;;;;;;6251418;22;20047;-84
2022/07/14 05:37:50;;;;;;;11.05;4.40;;;13.70;99.90;;;;;;6278303;22;20011;-83
2022/07/14 05:40:16;;;;;;;12.60;5.20;;;13.70;99.90;;;;;;6278218;22;20023;-84
2022/07/14 05:42:42;;;;;;;10.15;3.63;;;13.80;99.90;;;;;;6250728;22;20318;-84
2022/07/14 05:45:08;;;;;;;11.43;4.18;;;13.90;99.90;;;;;;6277283;22;20008;-84
2022/07/14 05:47:34;;;;;;;11.95;3.90;;;13.90;99.90;;;;;;6277698;22;20008;-84
2022/07/14 05:49:59;;;;;;;11.85;4.13;;;14.00;99.90;;;;;;6226186;22;20011;-84
2022/07/14 05:52:28;;;;;;;18.33;3.60;;;14.00;99.90;;;;;;6250903;22;20022;-83
2022/07/14 05:54:53;;;;;;;14.85;3.25;;;14.10;99.90;;;;;;6251361;22;20047;-84
2022/07/14 05:57:19;;;;;;;10.80;3.67;;;14.20;99.90;;;;;;6250954;22;20019;-83
2022/07/14 05:59:45;;;;;;;13.55;4.30;;;14.20;99.90;;;;;;6278233;22;20056;-84
2022/07/14 06:02:11;;;;;;;10.02;3.50;;;14.30;99.90;;;;;;6250441;22;20094;-85
2022/07/14 06:04:37;;;;;;;14.35;3.97;;;14.40;99.90;;;;;;6250718;22;20336;-85
2022/07/14 06:07:03;;;;;;;12.40;2.78;;;14.50;99.90;;;;;;6277187;22;20087;-83
2022/07/14 06:09:29;;;;;;;9.57;2.72;;;14.50;99.90;;;;;;6249963;22;20043;-85
2022/07/14 06:11:54;;;;;;;11.50;2.63;;;14.60;99.90;;;;;;6226323;22;20429;-84
2022/07/14 06:14:21;;;;;;;13.43;3.13;;;14.70;99.90;;;;;;6253161;22;20069;-84
2022/07/14 06:16:47;;;;;;;11.02;3.35;;;14.80;99.90;;;;;;6252086;22;20020;-84
2022/07/14 06:19:12;;;;;;;15.70;3.40;;;14.80;99.90;;;;;;6252487;22;20511;-83
2022/07/14 06:21:38;;;;;;;11.60;3.67;;;14.90;99.90;;;;;;6252521;22;20020;-82
2022/07/14 06:24:04;;;;;;;15.10;3.72;;;14.90;99.90;;;;;;6253095;22;20043;-83
2022/07/14 06:26:30;;;;;;;7.28;3.22;;;14.90;99.90;;;;;;6252452;22;20022;-84
2022/07/14 06:28:55;;;;;;;11.85;3.42;;;15.00;99.90;;;;;;6278967;22;20039;-83
2022/07/14 06:31:21;;;;;;;11.65;3.55;;;15.00;99.90;;;;;;6252453;22;20019;-83
2022/07/14 06:33:46;;;;;;;7.22;1.92;;;15.00;99.90;;;;;;6252405;22;20064;-83
2022/07/14 06:36:12;;;;;;;6.93;2.00;;;15.10;99.90;;;;;;6252357;22;20011;-83
2022/07/14 06:38:38;;;;;;;8.90;2.00;;;15.20;99.90;;;;;;6252270;22;20047;-83
2022/07/14 06:41:03;;;;;;;8.75;2.05;;;15.20;99.90;;;;;;6252011;22;20023;-84
2022/07/14 06:43:29;;;;;;;8.27;1.85;;;15.20;99.90;;;;;;6280212;22;20016;-82
2022/07/14 06:45:55;;;;;;;9.10;1.58;;;15.30;99.90;;;;;;6252300;22;20011;-83
2022/07/14 06:48:23;;;;;;;7.35;2.22;;;15.30;99.90;;;;;;6252313;22;20011;-83
2022/07/14 06:50:50;;;;;;;8.15;2.17;;;15.40;99.90;;;;;;6278990;22;20012;-81
2022/07/14 06:53:16;;;;;;;10.18;2.17;;;15.40;99.90;;;;;;6251955;22;20020;-82
2022/07/14 06:55:41;;;;;;;8.68;1.52;;;15.40;99.90;;;;;;6252306;22;20094;-84
2022/07/14 06:58:07;;;;;;;8.55;1.60;;;15.50;99.90;;;;;;6252577;22;20452;-83
2022/07/14 07:00:32;;;;;;;8.63;1.83;;;15.60;99.90;;;;;;6252111;22;20433;-83
2022/07/14 07:02:58;;;;;;;10.20;2.33;;;15.60;99.90;;;;;;6279500;22;20019;-82
2022/07/14 07:08:08;;;;;;;9.18;2.15;;;15.70;99.90;;;;;;6252339;22;20425;-83
2022/07/14 07:10:40;;;;;;;10.00;1.73;;;15.80;99.90;;;;;;6279032;22;20012;-83
2022/07/14 07:13:07;;;;;;;13.40;2.30;;;15.90;99.90;;;;;;6226650;22;20500;-82
2022/07/14 07:15:37;;;;;;;9.00;1.58;;;16.10;99.90;;;;;;6251994;22;20322;-83
2022/07/14 07:18:04;;;;;;;8.00;1.80;;;16.20;99.90;;;;;;6226457;22;20019;-82
2022/07/14 07:20:29;;;;;;;6.82;1.58;;;16.20;99.90;;;;;;6279056;22;20011;-81
2022/07/14 07:22:55;;;;;;;7.07;1.42;;;16.40;99.90;;;;;;6250564;22;20281;-82
2022/07/14 07:25:21;;;;;;;6.43;1.38;;;16.40;99.90;;;;;;6251666;22;20087;-82
2022/07/14 07:27:46;;;;;;;7.03;1.20;;;16.40;99.90;;;;;;6252043;22;20086;-83
2022/07/14 07:30:12;;;;;;;7.15;0.98;;;16.50;99.90;;;;;;6278838;22;20336;-83
2022/07/14 07:32:38;;;;;;;4.95;1.33;;;16.50;99.90;;;;;;6252120;22;20019;-83
2022/07/14 07:35:04;;;;;;;8.32;1.48;;;16.50;99.90;;;;;;6251938;22;20023;-82
2022/07/14 07:37:30;;;;;;;6.30;1.33;;;16.60;99.90;;;;;;6227006;22;20022;-82
2022/07/14 07:39:59;;;;;;;10.55;1.35;;;16.70;99.90;;;;;;6279659;22;20043;-82
2022/07/14 07:42:28;;;;;;;6.75;1.05;;;16.60;99.90;;;;;;6251424;22;20051;-76
2022/07/14 07:44:55;;;;;;;7.03;1.33;;;16.60;99.90;;;;;;6251070;22;20011;-79
2022/07/14 07:47:23;;;;;;;3.58;0.77;;;16.70;99.90;;;;;;6251975;22;20016;-82
2022/07/14 07:49:52;;;;;;;6.40;0.90;;;16.80;99.90;;;;;;6278476;22;20008;-81
2022/07/14 07:52:22;;;;;;;4.18;0.82;;;16.90;99.90;;;;;;6250216;22;20011;-82
2022/07/14 07:54:48;;;;;;;6.38;0.90;;;17.00;99.90;;;;;;6278069;22;20333;-81
2022/07/14 07:57:15;;;;;;;4.25;0.65;;;17.10;99.90;;;;;;6277927;22;20012;-82
2022/07/14 07:59:40;;;;;;;5.18;0.77;;;17.10;99.90;;;;;;6250997;22;20015;-82
2022/07/14 08:02:06;;;;;;;3.75;0.70;;;17.20;99.90;;;;;;6250777;22;20047;-82
2022/07/14 08:04:32;;;;;;;4.30;0.77;;;17.30;99.90;;;;;;6250723;22;20460;-81
2022/07/14 08:06:58;;;;;;;5.82;0.90;;;17.40;99.90;;;;;;6278465;22;20007;-81
2022/07/14 08:09:24;;;;;;;3.53;0.70;;;17.50;99.90;;;;;;6278058;22;20463;-81
2022/07/14 08:11:50;;;;;;;5.32;0.90;;;17.50;99.90;;;;;;6250031;22;20014;-81
2022/07/14 08:17:01;;;;;;;7.50;0.98;;;17.60;99.90;;;;;;6277528;22;20024;-81
2022/07/14 08:19:27;;;;;;;5.72;0.90;;;17.70;99.90;;;;;;6226392;22;20020;-81
2022/07/14 08:21:53;;;;;;;5.93;0.77;;;17.80;99.90;;;;;;6251651;22;20023;-82
2022/07/14 08:24:19;;;;;;;4.78;1.10;;;17.90;99.90;;;;;;6250653;22;20069;-81
2022/07/14 08:26:46;;;;;;;2.63;0.60;;;17.90;99.90;;;;;;6251408;22;20011;-81
2022/07/14 08:29:11;;;;;;;11.07;1.55;;;18.00;99.90;;;;;;6250475;22;20046;-81
2022/07/14 08:31:37;;;;;;;4.13;0.90;;;18.10;99.90;;;;;;6250381;22;20365;-81
2022/07/14 08:34:03;;;;;;;4.55;0.90;;;18.20;99.90;;;;;;6250533;22;20521;-82
2022/07/14 08:36:30;;;;;;;2.90;0.60;;;18.20;99.90;;;;;;6278655;22;20011;-82
2022/07/14 08:38:56;;;;;;;6.07;1.45;;;18.20;99.90;;;;;;6277558;22;20379;-81
2022/07/14 08:41:22;;;;;;;12.27;1.38;;;18.30;99.90;;;;;;6277950;22;20011;-82
2022/07/14 08:43:49;;;;;;;3.47;0.70;;;18.40;99.90;;;;;;6250596;22;20043;-80
2022/07/14 08:46:15;;;;;;;4.05;0.80;;;18.40;99.90;;;;;;6250564;22;20018;-82
2022/07/14 08:48:43;;;;;;;2.88;0.80;;;18.50;99.90;;;;;;6250849;22;20306;-82
2022/07/14 08:51:11;;;;;;;3.10;0.70;;;18.60;99.90;;;;;;6278618;22;20030;-81
2022/07/14 08:53:38;;;;;;;3.85;0.60;;;18.60;99.90;;;;;;6278928;22;20019;-81
2022/07/14 08:56:04;;;;;;;2.38;0.63;;;18.70;99.90;;;;;;6252132;22;20127;-81
2022/07/14 08:58:30;;;;;;;3.13;0.63;;;18.70;99.90;;;;;;6252463;22;20018;-82
2022/07/14 09:00:56;;;;;;;6.40;1.48;;;18.70;99.90;;;;;;6278829;22;20011;-81
2022/07/14 09:03:21;;;;;;;3.70;0.70;;;18.80;99.90;;;;;;6251587;22;20069;-81
2022/07/14 09:05:47;;;;;;;5.57;0.85;;;18.90;99.90;;;;;;6252848;22;20368;-81
2022/07/14 09:08:13;;;;;;;7.60;0.95;;;19.00;99.90;;;;;;6252190;22;20011;-81
2022/07/14 09:10:41;;;;;;;2.63;0.63;;;19.00;99.90;;;;;;6252053;22;20329;-81
2022/07/14 09:13:19;;;;;;;1.95;0.57;;;19.00;99.90;;;;;;6251817;22;20016;-81
2022/07/14 09:15:46;;;;;;;2.88;0.55;;;19.10;99.90;;;;;;6279836;22;20007;-81
2022/07/14 09:18:26;;;;;;;3.95;0.90;;;19.10;99.90;;;;;;6251868;22;20027;-81
2022/07/14 09:20:54;;;;;;;6.03;0.70;;;19.10;99.90;;;;;;6278768;22;20018;-81
2022/07/14 09:23:35;;;;;;;4.38;0.70;;;19.10;99.90;;;;;;6277828;22;20022;-82
2022/07/14 09:26:16;;;;;;;5.40;0.80;;;19.20;99.90;;;;;;6277687;22;20011;-81
2022/07/14 09:28:44;;;;;;;5.28;0.80;;;19.20;99.90;;;;;;6250676;22;20445;-81
2022/07/14 09:31:22;;;;;;;4.10;0.80;;;19.20;99.90;;;;;;6250670;22;20012;-81
2022/07/14 09:34:06;;;;;;;3.90;0.60;;;19.20;99.90;;;;;;6250614;22;20011;-82
2022/07/14 09:36:34;;;;;;;4.45;0.70;;;19.20;99.90;;;;;;6278274;22;20007;-83
2022/07/14 09:39:06;;;;;;;2.53;0.68;;;19.30;99.90;;;;;;6225480;22;20020;-82
2022/07/14 09:41:53;;;;;;;4.45;0.52;;;19.30;99.90;;;;;;6278175;22;20023;-82
2022/07/14 09:44:20;;;;;;;9.23;0.95;;;19.40;99.90;;;;;;6250663;22;20018;-82
2022/07/14 09:46:48;;;;;;;3.92;0.90;;;19.50;99.90;;;;;;6251782;22;20012;-83
2022/07/14 09:49:16;;;;;;;2.28;0.70;;;19.50;99.90;;;;;;6252712;22;20011;-83
2022/07/14 09:52:02;;;;;;;2.78;0.68;;;19.60;99.90;;;;;;6227174;22;20311;-83
2022/07/14 09:54:37;;;;;;;1.90;0.60;;;19.50;99.90;;;;;;6279308;22;20016;-82
2022/07/14 09:57:27;;;;;;;5.75;0.70;;;19.50;99.90;;;;;;6252642;22;20019;-83
2022/07/14 10:00:06;;;;;;;2.28;0.70;;;19.50;99.90;;;;;;6252413;22;20016;-83
2022/07/14 10:02:31;;;;;;;7.53;0.98;;;19.40;99.90;;;;;;6252180;22;20015;-82
2022/07/14 10:05:01;;;;;;;4.68;0.60;;;19.40;99.90;;;;;;6279652;22;20452;-83
2022/07/14 10:07:33;;;;;;;2.53;0.70;;;19.40;99.90;;;;;;6279585;22;20012;-83
2022/07/14 10:10:04;;;;;;;2.55;0.63;;;19.40;99.90;;;;;;6226978;22;20368;-83
2022/07/14 10:12:30;;;;;;;4.03;0.90;;;19.40;99.90;;;;;;6279910;22;20065;-83
2022/07/14 10:15:00;;;;;;;3.92;1.05;;;19.40;99.90;;;;;;6252237;22;20016;-83
2022/07/14 10:17:28;;;;;;;2.80;0.70;;;19.40;99.90;;;;;;6251884;22;20058;-82
2022/07/14 10:19:55;;;;;;;3.80;0.80;;;19.40;99.90;;;;;;6227194;22;20019;-82
2022/07/14 10:22:21;;;;;;;3.83;0.75;;;19.50;99.90;;;;;;6252261;22;20034;-82
2022/07/14 10:24:50;;;;;;;4.00;1.00;;;19.60;99.90;;;;;;6280491;22;20012;-82
2022/07/14 10:27:20;;;;;;;3.05;0.70;;;19.60;99.90;;;;;;6252770;22;20326;-82
2022/07/14 10:29:54;;;;;;;3.17;0.63;;;19.60;99.90;;;;;;6251906;22;20057;-82
2022/07/14 10:32:44;;;;;;;3.78;0.90;;;19.60;99.90;;;;;;6251508;22;20452;-81
2022/07/14 10:35:24;;;;;;;3.33;1.00;;;19.60;99.90;;;;;;6279719;22;20081;-83
2022/07/14 10:38:17;;;;;;;4.20;0.98;;;19.60;99.90;;;;;;6252191;22;20088;-83
2022/07/14 10:41:04;;;;;;;4.35;1.00;;;19.60;99.90;;;;;;6252212;22;20016;-82
2022/07/14 10:44:03;;;;;;;3.75;0.85;;;19.60;99.90;;;;;;6252090;22;20401;-82
2022/07/14 10:46:42;;;;;;;3.28;0.90;;;19.70;99.90;;;;;;6271561;22;20011;-83
2022/07/14 10:49:10;;;;;;;2.97;0.90;;;19.70;99.90;;;;;;6252149;22;20144;-83
2022/07/14 10:51:51;;;;;;;3.55;0.70;;;19.60;99.90;;;;;;6251505;22;20460;-83
2022/07/14 10:54:19;;;;;;;4.50;0.75;;;19.60;99.90;;;;;;6279307;22;20012;-82
2022/07/14 10:56:45;;;;;;;4.50;0.70;;;19.60;99.90;;;;;;6251210;22;20055;-82
2022/07/14 10:59:26;;;;;;;5.45;1.35;;;19.60;99.90;;;;;;6226572;22;20030;-83
2022/07/14 11:02:11;;;;;;;3.88;0.88;;;19.70;99.90;;;;;;6250823;22;20146;-82
2022/07/14 11:07:38;;;;;;;2.55;0.52;;;19.80;99.90;;;;;;6251697;22;20023;-83
2022/07/14 11:10:25;;;;;;;2.42;0.65;;;19.80;99.90;;;;;;6227016;22;20012;-83
2022/07/14 11:13:06;;;;;;;5.68;1.27;;;19.80;99.90;;;;;;6192300;22;20047;-83
2022/07/14 11:15:46;;;;;;;4.32;1.02;;;19.80;99.90;;;;;;6279338;22;20441;-82
2022/07/14 11:18:17;;;;;;;3.00;0.70;;;19.90;99.90;;;;;;6252623;22;20582;-83
2022/07/14 11:20:55;;;;;;;2.50;0.57;;;20.00;99.90;;;;;;6252805;22;20016;-82
2022/07/14 11:23:27;;;;;;;2.13;0.85;;;20.00;99.90;;;;;;6252437;22;20019;-83
2022/07/14 11:25:55;;;;;;;2.97;0.93;;;20.10;99.90;;;;;;6279386;22;20093;-81
2022/07/14 11:28:33;;;;;;;2.47;0.60;;;20.20;99.90;;;;;;6251487;22;20059;-82
2022/07/14 11:31:21;;;;;;;4.55;0.82;;;20.20;99.90;;;;;;6250986;22;20011;-82
2022/07/14 11:36:39;;;;;;;4.22;0.75;;;20.20;99.90;;;;;;6251030;22;20016;-83
2022/07/14 11:39:20;;;;;;;2.83;0.60;;;20.20;99.90;;;;;;6251841;22;20091;-82
2022/07/14 11:42:12;;;;;;;7.93;1.33;;;20.20;99.90;;;;;;6250958;22;20345;-83
2022/07/14 11:44:40;;;;;;;2.58;0.63;;;20.30;99.90;;;;;;6251776;22;20062;-81
2022/07/14 11:47:15;;;;;;;5.43;1.27;;;20.50;99.90;;;;;;6252270;22;20085;-82
2022/07/14 11:49:49;;;;;;;7.97;0.85;;;20.60;99.90;;;;;;6252882;22;20011;-82
2022/07/14 11:52:15;;;;;;;3.70;0.70;;;20.60;99.90;;;;;;6253641;22;20018;-82
2022/07/14 11:54:42;;;;;;;2.85;0.60;;;20.90;99.90;;;;;;6262019;22;20060;-79
2022/07/14 11:57:10;;;;;;;4.38;0.88;;;21.10;99.90;;;;;;6271201;22;20091;-79
2022/07/14 11:59:42;;;;;;;3.25;0.80;;;21.30;99.90;;;;;;6270479;22;20015;-81
2022/07/14 12:02:17;;;;;;;5.03;1.05;;;21.40;99.90;;;;;;6286897;22;20012;-80
2022/07/14 12:05:02;;;;;;;2.97;0.77;;;21.50;99.90;;;;;;6227196;22;20015;-81
2022/07/14 12:07:44;;;;;;;3.72;0.60;;;21.40;99.90;;;;;;6252302;22;20322;-84
2022/07/14 12:10:11;;;;;;;4.60;0.80;;;21.20;99.90;;;;;;6288760;22;20079;-81
2022/07/14 12:12:43;;;;;;;3.38;0.60;;;21.00;99.90;;;;;;6226731;22;20471;-82
2022/07/14 12:15:09;;;;;;;6.30;1.17;;;20.70;99.90;;;;;;6253114;22;20011;-82
2022/07/14 12:17:48;;;;;;;3.28;0.70;;;20.60;99.90;;;;;;6251766;22;20012;-81
2022/07/14 12:20:15;;;;;;;5.53;0.93;;;20.40;99.90;;;;;;6251202;22;20448;-82
2022/07/14 12:22:44;;;;;;;2.85;0.80;;;20.30;99.90;;;;;;6226046;22;20055;-82
2022/07/14 12:25:26;;;;;;;4.22;0.93;;;20.60;99.90;;;;;;6251928;22;20007;-83
2022/07/14 12:27:52;;;;;;;2.90;0.70;;;20.90;99.90;;;;;;6251451;22;20022;-82
2022/07/14 12:30:17;;;;;;;3.50;0.55;;;21.20;99.90;;;;;;6226163;22;20484;-82
2022/07/14 12:32:44;;;;;;;4.25;1.00;;;21.50;99.90;;;;;;6278521;22;20020;-83
2022/07/14 12:35:10;;;;;;;3.35;0.90;;;21.70;99.90;;;;;;6278633;22;20039;-83
2022/07/14 12:37:36;;;;;;;5.05;0.80;;;21.90;99.90;;;;;;6226449;22;20016;-83
2022/07/14 12:40:04;;;;;;;2.20;0.75;;;21.90;99.90;;;;;;6279087;22;20065;-82
2022/07/14 12:42:30;;;;;;;3.47;0.63;;;21.80;99.90;;;;;;6278388;22;20011;-82
2022/07/14 12:44:58;;;;;;;5.43;1.55;;;21.60;99.90;;;;;;6250829;22;20065;-84
2022/07/14 12:47:24;;;;;;;3.50;0.80;;;21.40;99.90;;;;;;6251382;22;20018;-82
2022/07/14 12:49:50;;;;;;;3.55;0.80;;;21.40;99.90;;;;;;6278225;22;20390;-83
2022/07/14 12:52:16;;;;;;;4.40;0.98;;;21.40;99.90;;;;;;6251986;22;20008;-82
2022/07/14 12:54:43;;;;;;;4.97;0.73;;;21.40;99.90;;;;;;6250739;22;20023;-82
2022/07/14 12:57:23;;;;;;;2.45;0.88;;;21.50;99.90;;;;;;6277770;22;20043;-83
2022/07/14 12:59:49;;;;;;;2.33;0.63;;;21.60;99.90;;;;;;6251246;22;20071;-84
2022/07/14 13:02:23;;;;;;;2.08;0.70;;;21.70;99.90;;;;;;6250350;22;20069;-84
2022/07/14 13:05:10;;;;;;;3.03;0.70;;;21.70;99.90;;;;;;6225213;22;20016;-82
2022/07/14 13:07:39;;;;;;;2.92;0.73;;;21.80;99.90;;;;;;6250763;22;20417;-83
2022/07/14 13:10:12;;;;;;;3.53;0.85;;;21.60;99.90;;;;;;6278599;22;20012;-83
2022/07/14 13:12:44;;;;;;;2.78;0.60;;;21.40;99.90;;;;;;6250581;22;20416;-82
2022/07/14 13:15:11;;;;;;;3.28;0.70;;;21.30;99.90;;;;;;6225400;22;20059;-82
2022/07/14 13:17:59;;;;;;;2.33;0.63;;;21.40;99.90;;;;;;6250544;22;20027;-84
2022/07/14 13:20:46;;;;;;;4.55;0.70;;;21.40;99.90;;;;;;6224559;22;20065;-82
2022/07/14 13:23:39;;;;;;;5.00;0.90;;;21.40;99.90;;;;;;6250385;22;20012;-83
2022/07/14 13:26:16;;;;;;;2.33;0.60;;;21.20;99.90;;;;;;6250560;22;20015;-83
2022/07/14 13:28:47;;;;;;;6.07;0.77;;;21.20;99.90;;;;;;6278064;22;20011;-82
2022/07/14 13:31:19;;;;;;;3.90;0.95;;;21.00;99.90;;;;;;6250338;22;20011;-83
2022/07/14 13:33:46;;;;;;;2.25;0.60;;;20.90;99.90;;;;;;6277934;22;20334;-83
2022/07/14 13:36:13;;;;;;;4.30;0.65;;;21.00;99.90;;;;;;6278133;22;20429;-83
2022/07/14 13:38:41;;;;;;;2.10;0.60;;;21.10;99.90;;;;;;6277724;22;20019;-83
2022/07/14 13:41:09;;;;;;;3.80;0.70;;;21.20;99.90;;;;;;6250608;22;20019;-83
2022/07/14 13:43:36;;;;;;;3.40;0.75;;;21.20;99.90;;;;;;6224995;22;20096;-83
2022/07/14 13:46:02;;;;;;;4.07;0.85;;;21.30;99.90;;;;;;6250576;22;20376;-84
2022/07/14 13:48:28;;;;;;;4.70;0.75;;;21.40;99.90;;;;;;6250404;22;20014;-83
2022/07/14 13:53:38;;;;;;;4.13;0.90;;;21.30;99.90;;;;;;6250498;22;20054;-84
2022/07/14 13:56:05;;;;;;;2.60;0.80;;;21.30;99.90;;;;;;6277985;22;20011;-82
2022/07/14 13:58:30;;;;;;;3.63;0.63;;;21.30;99.90;;;;;;6250436;22;20089;-81
2022/07/14 14:00:56;;;;;;;2.22;0.55;;;21.40;99.90;;;;;;6249690;22;20015;-82
2022/07/14 14:03:23;;;;;;;4.22;1.08;;;21.50;99.90;;;;;;6251051;22;20032;-83
2022/07/14 14:05:59;;;;;;;2.15;0.60;;;21.80;99.90;;;;;;6250596;22;20347;-83
2022/07/14 14:08:27;;;;;;;2.60;0.57;;;22.10;99.90;;;;;;6250447;22;20008;-83
2022/07/14 14:10:53;;;;;;;3.33;0.88;;;22.10;99.90;;;;;;6250154;22;20084;-83
2022/07/14 14:13:20;;;;;;;2.33;0.50;;;21.80;99.90;;;;;;6250744;22;20340;-82
2022/07/14 14:15:46;;;;;;;2.08;0.70;;;21.50;99.90;;;;;;6250407;22;20016;-80
2022/07/14 14:18:13;;;;;;;2.38;0.50;;;21.40;99.90;;;;;;6250615;22;20012;-82
2022/07/14 14:20:38;;;;;;;1.33;0.52;;;21.40;99.90;;;;;;6250255;22;20449;-82
2022/07/14 14:23:05;;;;;;;2.33;0.50;;;21.40;99.90;;;;;;6250209;22;20026;-83
2022/07/14 14:25:35;;;;;;;4.85;0.80;;;21.30;99.90;;;;;;6249905;22;20438;-81
2022/07/14 14:28:01;;;;;;;3.08;0.70;;;21.50;99.90;;;;;;6250107;22;20433;-83
2022/07/14 14:30:28;;;;;;;2.00;0.50;;;21.40;99.90;;;;;;6250027;22;20015;-83
2022/07/14 14:32:54;;;;;;;2.75;0.60;;;21.50;99.90;;;;;;6250890;22;20012;-83
2022/07/14 14:35:19;;;;;;;4.00;0.70;;;21.40;99.90;;;;;;6251977;22;20503;-84
2022/07/14 14:37:45;;;;;;;2.45;0.73;;;21.60;99.90;;;;;;6279131;22;20016;-84
2022/07/14 14:40:11;;;;;;;3.22;0.60;;;21.80;99.90;;;;;;6279275;22;20003;-84
2022/07/14 14:42:37;;;;;;;4.30;0.70;;;21.70;99.90;;;;;;6279409;22;20058;-83
2022/07/14 14:45:03;;;;;;;3.28;0.60;;;21.60;99.90;;;;;;6279320;22;20011;-83
2022/07/14 14:47:29;;;;;;;2.58;0.70;;;21.60;99.90;;;;;;6278787;22;20425;-84
2022/07/14 14:49:55;;;;;;;4.03;0.80;;;21.50;99.90;;;;;;6251349;22;20015;-83
2022/07/14 14:52:26;;;;;;;4.70;0.90;;;21.50;99.90;;;;;;6252148;22;20329;-84
2022/07/14 14:54:52;;;;;;;3.65;0.73;;;21.60;99.90;;;;;;6251886;22;20422;-83
2022/07/14 14:57:19;;;;;;;3.25;0.60;;;21.80;99.90;;;;;;6251943;22;20445;-85
2022/07/14 14:59:45;;;;;;;2.47;0.68;;;22.00;99.90;;;;;;6279025;22;20008;-82
2022/07/14 15:02:11;;;;;;;2.28;0.68;;;22.10;99.90;;;;;;6278922;22;20008;-82
2022/07/14 15:04:36;;;;;;;2.78;0.65;;;22.20;99.90;;;;;;6278923;22;20066;-81
2022/07/14 15:07:02;;;;;;;5.30;1.20;;;22.30;98.70;;;;;;6252244;22;20091;-84
2022/07/14 15:09:28;;;;;;;3.63;0.60;;;22.40;99.60;;;;;;6251761;22;20464;-83
2022/07/14 15:11:54;;;;;;;4.93;0.80;;;22.50;98.20;;;;;;6278646;22;20007;-83
2022/07/14 15:14:20;;;;;;;3.38;1.00;;;22.50;97.50;;;;;;6278619;22;20071;-82
2022/07/14 15:16:45;;;;;;;2.85;0.63;;;22.60;96.00;;;;;;6278600;22;20011;-81
2022/07/14 15:19:17;;;;;;;2.00;0.60;;;22.70;95.70;;;;;;6278937;22;20015;-84
2022/07/14 15:21:43;;;;;;;2.70;0.90;;;22.70;96.30;;;;;;6278911;22;20090;-83
2022/07/14 15:24:09;;;;;;;4.18;1.08;;;22.60;95.90;;;;;;6278726;22;20379;-81
2022/07/14 15:26:35;;;;;;;3.80;0.90;;;22.50;96.70;;;;;;6252392;22;20043;-81
2022/07/14 15:29:02;;;;;;;3.90;0.80;;;22.10;96.70;;;;;;6279222;22;20008;-82
2022/07/14 15:31:28;;;;;;;3.30;0.80;;;22.00;98.90;;;;;;6278740;22;20051;-82
2022/07/14 15:33:54;;;;;;;8.63;1.33;;;21.60;99.90;;;;;;6225841;22;20020;-82
2022/07/14 15:36:20;;;;;;;3.88;1.00;;;21.40;99.90;;;;;;6251562;22;20022;-82
2022/07/14 15:41:32;;;;;;;3.60;1.00;;;21.00;99.90;;;;;;6250807;22;20051;-84
2022/07/14 15:44:02;;;;;;;7.32;1.20;;;20.90;99.90;;;;;;6225695;22;20162;-82
2022/07/14 15:46:29;;;;;;;3.90;1.15;;;21.20;99.90;;;;;;6252161;22;20154;-81
2022/07/14 15:48:55;;;;;;;5.45;1.77;;;21.30;99.90;;;;;;6279051;22;20334;-83
2022/07/14 15:51:21;;;;;;;4.45;1.55;;;21.50;99.90;;;;;;6251782;22;20008;-82
2022/07/14 15:53:46;;;;;;;5.80;1.20;;;21.40;99.90;;;;;;6252542;22;20015;-82
2022/07/14 15:56:14;;;;;;;7.45;1.70;;;21.20;99.90;;;;;;6250119;22;20392;-80
2022/07/14 15:58:40;;;;;;;6.43;1.60;;;20.70;99.90;;;;;;6225708;22;20015;-80
2022/07/14 16:01:05;;;;;;;7.15;1.75;;;20.70;99.90;;;;;;6249724;22;20408;-82
2022/07/14 16:03:31;;;;;;;6.10;1.30;;;20.50;99.90;;;;;;6277114;22;20050;-83
2022/07/14 16:05:57;;;;;;;4.38;1.58;;;20.50;99.90;;;;;;6279628;22;20417;-83
2022/07/14 16:08:23;;;;;;;4.82;1.40;;;20.40;99.90;;;;;;6251378;22;20449;-83
2022/07/14 16:10:48;;;;;;;4.88;1.45;;;20.40;99.90;;;;;;6226003;22;20019;-83
2022/07/14 16:13:14;;;;;;;8.75;1.52;;;20.40;99.90;;;;;;6278389;22;20330;-83